Reuben Lasker — WTEG — position and weather

sailwx.info

Track history (hours):
 
Tides and Currents Weather Stations Pressure Air Temp Water Temp Dewpoint Dewpoint Depression Visibility Wind Speed Wind Dir Waves Ship Positions

Oceanographic research ship Reuben Lasker (United States)

Last reported at 2017-Oct-17 13:58 UTC. Time now 2017-Oct-17 15:12 UTC.
Position N 22°30' W 157°54'.

Length 64 m; draft 6.1 m.

Type: Other ship. MMSI: 369970573.

Wind from 070 at 22 knots

Barometer 1017.2 mb
Air temperature 26.4 ° C
Water temperature 27.1 ° C

Date/timePositionNaut miles runAvg speedWind from/ knotsBaromVisibWave heightAir tempDewpointWater temp
2017-Oct-17 13:58N 22°30' W 157°54'8 8.3 070 / 221017.2 26.4 27.1
2017-Oct-17 12:59N 22°24' W 158°00'6 6.0 060 / 221017.5 26.4 27.1
2017-Oct-17 11:59N 22°18' W 158°00'8 8.2 060 / 241017.4 26.7 27.0
2017-Oct-17 10:59N 22°12' W 158°06'6 6.0 060 / 191018.2 26.6 27.1
2017-Oct-17 09:59N 22°06' W 158°06'6 6.0 070 / 231018.4 26.9 27.1
2017-Oct-17 08:59N 22°00' W 158°06'1313.2 070 / 231018.6 26.9 27.1
2017-Oct-17 07:59N 21°48' W 158°12'6 6.0 060 / 231018.4 27.1 27.1
2017-Oct-17 06:59N 21°42' W 158°12'6 5.6 060 / 261017.6 27.2 27.3
2017-Oct-17 05:59N 21°42' W 158°18'6 6.0 060 / 261017.3 27.0 27.4
2017-Oct-17 04:59N 21°36' W 158°18'6 6.0 060 / 211016.4 26.9 27.3
2017-Oct-17 03:59N 21°30' W 158°18'1313.2 070 / 191015.7 26.8 28.1
2017-Oct-17 02:59N 21°18' W 158°12'8 8.2 050 / 91014.9 26.5 28.0
2017-Oct-17 01:59N 21°12' W 158°06'8 8.2 060 / 181013.7 28.3 27.7
2017-Oct-17 00:59N 21°06' W 158°00'8 8.3 070 / 281013.8 27.4 27.7
2017-Oct-17 00:00N 21°12' W 157°54'6 6.0 070 / 221013.9 27.6 27.4
2017-Oct-16 23:00N 21°18' W 157°54'0 0.0 030 / 101014.7 27.7
2017-Oct-16 22:00N 21°18' W 157°54'0 0.0 060 / 121015.7 28.2 28.3
2017-Oct-16 21:00N 21°18' W 157°54'0 0.0 050 / 171016.5 28.0 28.2
2017-Oct-16 20:00N 21°18' W 157°54'   050 / 161016.7 27.8 28.2
2017-Oct-10 19:49N 21°18' W 157°54'0 0.0 020 / 101013.3 33.0 28.3
2017-Oct-10 18:50N 21°18' W 157°54'6 6.0 330 / 61013.5 30.1 27.8
2017-Oct-10 17:50N 21°12' W 157°54'0 0.0 350 / 111013.5 25.9 28.1
2017-Oct-10 16:50N 21°12' W 157°54'0 0.0 030 / 41013.2 26.7 28.0
2017-Oct-10 15:50N 21°12' W 157°54'8 8.2 020 / 91012.9 26.1 27.9
2017-Oct-10 14:50N 21°06' W 158°00'0 0.0 010 / 101012.8 26.4 27.9
2017-Oct-10 13:50N 21°06' W 158°00'6 6.0 360 / 101012.7 26.6 28.0
2017-Oct-10 12:50N 21°00' W 158°00'0 0.0 350 / 91012.9 26.7 28.3
2017-Oct-10 11:50N 21°00' W 158°00'6 6.0 010 / 81013.3 26.9 28.4
2017-Oct-10 10:50N 20°54' W 158°00'8 8.2 020 / 51013.7 27.1 28.3
2017-Oct-10 09:50N 20°48' W 158°06'6 6.0 040 / 141013.5 27.3 28.0
2017-Oct-10 08:50N 20°54' W 158°06'18 8.9 010 / 91014.0 27.2 28.3
2017-Oct-10 06:50N 21°00' W 157°48'1111.2 040 / 151013.8 27.3 28.1
2017-Oct-10 05:50N 21°00' W 157°36'1111.2 030 / 131013.5 27.3 28.1
2017-Oct-10 04:50N 21°00' W 157°24'1111.2 030 / 131013.0 27.2 27.6
2017-Oct-10 03:50N 21°00' W 157°12'6 5.6 040 / 101012.4 27.8 28.3
2017-Oct-10 02:50N 21°00' W 157°06'0 0.0 120 / 61011.8 28.3 28.6
2017-Oct-10 01:50N 21°00' W 157°06'0 0.0 100 / 131011.5 27.8 28.7
2017-Oct-10 00:50N 21°00' W 157°06'0 0.0 100 / 41011.6 28.4 28.7
2017-Oct-09 22:50N 21°00' W 157°06'6 5.7 050 / 71012.8 28.1 28.7
2017-Oct-09 21:51N 21°00' W 157°00'6 5.6 080 / 101013.5 28.2 28.4
2017-Oct-09 20:51N 21°00' W 156°54'1312.7 070 / 151014.3 27.4 27.9
2017-Oct-09 19:51N 20°54' W 156°42'1212.0 020 / 151013.9 27.7 28.1
2017-Oct-09 18:51N 20°42' W 156°42'6 6.0 260 / 41014.3 27.5 28.3
2017-Oct-09 17:51N 20°36' W 156°42'8 8.2 060 / 61013.6 27.6 28.2
2017-Oct-09 16:51N 20°30' W 156°48'0 0.0 070 / 101013.2 27.6 28.2
2017-Oct-09 15:51N 20°30' W 156°48'1313.3 090 / 101012.5 27.3 28.2
2017-Oct-09 14:51N 20°18' W 156°54'1313.3 060 / 121012.2 27.5 28.0
2017-Oct-09 13:51N 20°06' W 157°00'8 8.2 300 / 101012.2 26.1 28.1
2017-Oct-09 12:51N 20°00' W 157°06'8 8.2 340 / 71012.4 27.0 28.1
2017-Oct-09 11:51N 19°54' W 157°12'1313.3 320 / 71012.8 27.1 27.7
2017-Oct-09 10:51N 19°42' W 157°18'8 8.2 330 / 61013.3 27.2 28.1
2017-Oct-09 09:51N 19°36' W 157°24'8 8.2 350 / 71013.6 27.5 28.0
2017-Oct-09 08:51N 19°30' W 157°30'1313.3 360 / 51013.6 27.4 28.1
2017-Oct-09 07:51N 19°18' W 157°36'8 8.3 360 / 41013.7 27.5 28.2
2017-Oct-09 06:51N 19°12' W 157°42'1313.3 090 / 61013.3 27.9 28.3
2017-Oct-09 05:51N 19°00' W 157°48'8 8.3 080 / 71012.5 27.8 28.4
2017-Oct-09 04:51N 18°54' W 157°54'8 8.3 090 / 81011.7 27.7 27.9
2017-Oct-09 03:51N 18°48' W 158°00'8 8.4 100 / 61011.6 27.7 28.2
2017-Oct-09 02:52N 18°42' W 158°06'8 8.3 080 / 81011.0 27.6 28.1
2017-Oct-09 01:52N 18°36' W 158°12'6 6.0 070 / 61011.1 27.7 28.1
2017-Oct-09 00:52N 18°30' W 158°12'19 9.4 080 / 81011.0 27.8 28.1
2017-Oct-08 22:52N 18°12' W 158°18'1313.3 070 / 111011.6 27.6 27.9
2017-Oct-08 21:52N 18°00' W 158°24'1212.0 070 / 121011.9 27.6 28.0
2017-Oct-08 20:52N 17°48' W 158°24'6 6.1 070 / 91012.5 28.1 28.1
2017-Oct-08 19:53N 17°42' W 158°24'6 5.7 060 / 101012.4 27.4 28.1
2017-Oct-08 18:53N 17°42' W 158°30'8 8.3 050 / 91012.3 27.3 28.1
2017-Oct-08 17:53N 17°48' W 158°36'29 9.7 060 / 81011.8 27.3 28.1
2017-Oct-08 14:53N 18°06' W 159°00'1312.9 080 / 41011.1 27.2 27.8
2017-Oct-08 13:53N 18°12' W 159°12'8 8.3 090 / 31010.7 27.2 27.8
2017-Oct-08 12:53N 18°18' W 159°18'1312.9 140 / 51010.6 27.2 28.3
2017-Oct-08 11:53N 18°24' W 159°30'6 5.7 130 / 81011.1 27.4 28.6
2017-Oct-08 10:53N 18°24' W 159°36'1312.9 120 / 91011.8 27.7 28.4
2017-Oct-08 09:53N 18°30' W 159°48'8 8.3 120 / 51011.7 27.7 28.3
2017-Oct-08 08:53N 18°36' W 159°54'1312.9 090 / 41012.1 27.8 28.5
2017-Oct-08 07:53N 18°42' W 160°06'8 8.3 080 / 51011.8 27.8 28.5
2017-Oct-08 06:53N 18°48' W 160°12'1312.8 140 / 51011.8 27.9 28.6
2017-Oct-08 05:53N 18°54' W 160°24'8 8.1 080 / 51010.9 27.7 28.6
2017-Oct-08 04:52N 19°00' W 160°30'1312.8 070 / 51010.1 27.9 28.6
2017-Oct-08 03:52N 19°06' W 160°42'8 8.4 330 / 31009.6 27.0 28.5
2017-Oct-08 02:53N 19°12' W 160°48'8 8.3 040 / 101008.9 27.2 28.5
2017-Oct-08 01:53N 19°18' W 160°54'1312.8 050 / 101008.9 27.6 28.5
2017-Oct-08 00:53N 19°24' W 161°06'2110.4 060 / 131009.1 27.7 28.5
2017-Oct-07 22:53N 19°36' W 161°24'8 8.2 050 / 111011.1 27.5 28.4
2017-Oct-07 21:53N 19°42' W 161°30'1312.8 060 / 131012.1 27.8 28.6
2017-Oct-07 20:53N 19°48' W 161°42'6 5.6 050 / 101012.8 27.8 28.9
2017-Oct-07 19:53N 19°48' W 161°48'1312.8 050 / 101013.0 27.3 28.6
2017-Oct-07 18:53N 19°54' W 162°00'8 8.2 050 / 91012.7 26.9 28.3
2017-Oct-07 17:53N 20°00' W 162°06'1312.8 070 / 121012.3 27.0 28.3
2017-Oct-07 16:53N 20°06' W 162°18'8 8.2 080 / 141011.8 26.8 28.3
2017-Oct-07 15:53N 20°12' W 162°24'1312.8 030 / 151011.4 27.7 28.2
2017-Oct-07 14:53N 20°18' W 162°36'   040 / 161011.1 27.8 28.2
Track history (hours):
 
Tides and Currents Weather Stations Pressure Air Temp Water Temp Dewpoint Dewpoint Depression Visibility Wind Speed Wind Dir Waves Ship Positions

Oceanographic research ship Reuben Lasker (United States)

Last reported at 2017-Oct-17 13:58 UTC. Time now 2017-Oct-17 15:12 UTC.
Position N 22°30' W 157°54'.

Length 64 m; draft 6.1 m.

Type: Other ship. MMSI: 369970573.

Wind from 070 at 22 knots

Barometer 1017.2 mb
Air temperature 26.4 ° C
Water temperature 27.1 ° C

Date/timePositionNaut miles runAvg speedWind from/ knotsBaromVisibWave heightAir tempDewpointWater temp
2017-Oct-17 13:58N 22°30' W 157°54'8 8.3 070 / 221017.2 26.4 27.1
2017-Oct-17 12:59N 22°24' W 158°00'6 6.0 060 / 221017.5 26.4 27.1
2017-Oct-17 11:59N 22°18' W 158°00'8 8.2 060 / 241017.4 26.7 27.0
2017-Oct-17 10:59N 22°12' W 158°06'6 6.0 060 / 191018.2 26.6 27.1
2017-Oct-17 09:59N 22°06' W 158°06'6 6.0 070 / 231018.4 26.9 27.1
2017-Oct-17 08:59N 22°00' W 158°06'1313.2 070 / 231018.6 26.9 27.1
2017-Oct-17 07:59N 21°48' W 158°12'6 6.0 060 / 231018.4 27.1 27.1
2017-Oct-17 06:59N 21°42' W 158°12'6 5.6 060 / 261017.6 27.2 27.3
2017-Oct-17 05:59N 21°42' W 158°18'6 6.0 060 / 261017.3 27.0 27.4
2017-Oct-17 04:59N 21°36' W 158°18'6 6.0 060 / 211016.4 26.9 27.3
2017-Oct-17 03:59N 21°30' W 158°18'1313.2 070 / 191015.7 26.8 28.1
2017-Oct-17 02:59N 21°18' W 158°12'8 8.2 050 / 91014.9 26.5 28.0
2017-Oct-17 01:59N 21°12' W 158°06'8 8.2 060 / 181013.7 28.3 27.7
2017-Oct-17 00:59N 21°06' W 158°00'8 8.3 070 / 281013.8 27.4 27.7
2017-Oct-17 00:00N 21°12' W 157°54'6 6.0 070 / 221013.9 27.6 27.4
2017-Oct-16 23:00N 21°18' W 157°54'0 0.0 030 / 101014.7 27.7
2017-Oct-16 22:00N 21°18' W 157°54'0 0.0 060 / 121015.7 28.2 28.3
2017-Oct-16 21:00N 21°18' W 157°54'0 0.0 050 / 171016.5 28.0 28.2
2017-Oct-16 20:00N 21°18' W 157°54'   050 / 161016.7 27.8 28.2
2017-Oct-10 19:49N 21°18' W 157°54'0 0.0 020 / 101013.3 33.0 28.3
2017-Oct-10 18:50N 21°18' W 157°54'6 6.0 330 / 61013.5 30.1 27.8
2017-Oct-10 17:50N 21°12' W 157°54'0 0.0 350 / 111013.5 25.9 28.1
2017-Oct-10 16:50N 21°12' W 157°54'0 0.0 030 / 41013.2 26.7 28.0
2017-Oct-10 15:50N 21°12' W 157°54'8 8.2 020 / 91012.9 26.1 27.9
2017-Oct-10 14:50N 21°06' W 158°00'0 0.0 010 / 101012.8 26.4 27.9
2017-Oct-10 13:50N 21°06' W 158°00'6 6.0 360 / 101012.7 26.6 28.0
2017-Oct-10 12:50N 21°00' W 158°00'0 0.0 350 / 91012.9 26.7 28.3
2017-Oct-10 11:50N 21°00' W 158°00'6 6.0 010 / 81013.3 26.9 28.4
2017-Oct-10 10:50N 20°54' W 158°00'8 8.2 020 / 51013.7 27.1 28.3
2017-Oct-10 09:50N 20°48' W 158°06'6 6.0 040 / 141013.5 27.3 28.0
2017-Oct-10 08:50N 20°54' W 158°06'18 8.9 010 / 91014.0 27.2 28.3
2017-Oct-10 06:50N 21°00' W 157°48'1111.2 040 / 151013.8 27.3 28.1
2017-Oct-10 05:50N 21°00' W 157°36'1111.2 030 / 131013.5 27.3 28.1
2017-Oct-10 04:50N 21°00' W 157°24'1111.2 030 / 131013.0 27.2 27.6
2017-Oct-10 03:50N 21°00' W 157°12'6 5.6 040 / 101012.4 27.8 28.3
2017-Oct-10 02:50N 21°00' W 157°06'0 0.0 120 / 61011.8 28.3 28.6
2017-Oct-10 01:50N 21°00' W 157°06'0 0.0 100 / 131011.5 27.8 28.7
2017-Oct-10 00:50N 21°00' W 157°06'0 0.0 100 / 41011.6 28.4 28.7
2017-Oct-09 22:50N 21°00' W 157°06'6 5.7 050 / 71012.8 28.1 28.7
2017-Oct-09 21:51N 21°00' W 157°00'6 5.6 080 / 101013.5 28.2 28.4
2017-Oct-09 20:51N 21°00' W 156°54'1312.7 070 / 151014.3 27.4 27.9
2017-Oct-09 19:51N 20°54' W 156°42'1212.0 020 / 151013.9 27.7 28.1
2017-Oct-09 18:51N 20°42' W 156°42'6 6.0 260 / 41014.3 27.5 28.3
2017-Oct-09 17:51N 20°36' W 156°42'8 8.2 060 / 61013.6 27.6 28.2
2017-Oct-09 16:51N 20°30' W 156°48'0 0.0 070 / 101013.2 27.6 28.2
2017-Oct-09 15:51N 20°30' W 156°48'1313.3 090 / 101012.5 27.3 28.2
2017-Oct-09 14:51N 20°18' W 156°54'1313.3 060 / 121012.2 27.5 28.0
2017-Oct-09 13:51N 20°06' W 157°00'8 8.2 300 / 101012.2 26.1 28.1
2017-Oct-09 12:51N 20°00' W 157°06'8 8.2 340 / 71012.4 27.0 28.1
2017-Oct-09 11:51N 19°54' W 157°12'1313.3 320 / 71012.8 27.1 27.7
2017-Oct-09 10:51N 19°42' W 157°18'8 8.2 330 / 61013.3 27.2 28.1
2017-Oct-09 09:51N 19°36' W 157°24'8 8.2 350 / 71013.6 27.5 28.0
2017-Oct-09 08:51N 19°30' W 157°30'1313.3 360 / 51013.6 27.4 28.1
2017-Oct-09 07:51N 19°18' W 157°36'8 8.3 360 / 41013.7 27.5 28.2
2017-Oct-09 06:51N 19°12' W 157°42'1313.3 090 / 61013.3 27.9 28.3
2017-Oct-09 05:51N 19°00' W 157°48'8 8.3 080 / 71012.5 27.8 28.4
2017-Oct-09 04:51N 18°54' W 157°54'8 8.3 090 / 81011.7 27.7 27.9
2017-Oct-09 03:51N 18°48' W 158°00'8 8.4 100 / 61011.6 27.7 28.2
2017-Oct-09 02:52N 18°42' W 158°06'8 8.3 080 / 81011.0 27.6 28.1
2017-Oct-09 01:52N 18°36' W 158°12'6 6.0 070 / 61011.1 27.7 28.1
2017-Oct-09 00:52N 18°30' W 158°12'19 9.4 080 / 81011.0 27.8 28.1
2017-Oct-08 22:52N 18°12' W 158°18'1313.3 070 / 111011.6 27.6 27.9
2017-Oct-08 21:52N 18°00' W 158°24'1212.0 070 / 121011.9 27.6 28.0
2017-Oct-08 20:52N 17°48' W 158°24'6 6.1 070 / 91012.5 28.1 28.1
2017-Oct-08 19:53N 17°42' W 158°24'6 5.7 060 / 101012.4 27.4 28.1
2017-Oct-08 18:53N 17°42' W 158°30'8 8.3 050 / 91012.3 27.3 28.1
2017-Oct-08 17:53N 17°48' W 158°36'29 9.7 060 / 81011.8 27.3 28.1
2017-Oct-08 14:53N 18°06' W 159°00'1312.9 080 / 41011.1 27.2 27.8
2017-Oct-08 13:53N 18°12' W 159°12'8 8.3 090 / 31010.7 27.2 27.8
2017-Oct-08 12:53N 18°18' W 159°18'1312.9 140 / 51010.6 27.2 28.3
2017-Oct-08 11:53N 18°24' W 159°30'6 5.7 130 / 81011.1 27.4 28.6
2017-Oct-08 10:53N 18°24' W 159°36'1312.9 120 / 91011.8 27.7 28.4
2017-Oct-08 09:53N 18°30' W 159°48'8 8.3 120 / 51011.7 27.7 28.3
2017-Oct-08 08:53N 18°36' W 159°54'1312.9 090 / 41012.1 27.8 28.5
2017-Oct-08 07:53N 18°42' W 160°06'8 8.3 080 / 51011.8 27.8 28.5
2017-Oct-08 06:53N 18°48' W 160°12'1312.8 140 / 51011.8 27.9 28.6
2017-Oct-08 05:53N 18°54' W 160°24'8 8.1 080 / 51010.9 27.7 28.6
2017-Oct-08 04:52N 19°00' W 160°30'1312.8 070 / 51010.1 27.9 28.6
2017-Oct-08 03:52N 19°06' W 160°42'8 8.4 330 / 31009.6 27.0 28.5
2017-Oct-08 02:53N 19°12' W 160°48'8 8.3 040 / 101008.9 27.2 28.5
2017-Oct-08 01:53N 19°18' W 160°54'1312.8 050 / 101008.9 27.6 28.5
2017-Oct-08 00:53N 19°24' W 161°06'2110.4 060 / 131009.1 27.7 28.5
2017-Oct-07 22:53N 19°36' W 161°24'8 8.2 050 / 111011.1 27.5 28.4
2017-Oct-07 21:53N 19°42' W 161°30'1312.8 060 / 131012.1 27.8 28.6
2017-Oct-07 20:53N 19°48' W 161°42'6 5.6 050 / 101012.8 27.8 28.9
2017-Oct-07 19:53N 19°48' W 161°48'1312.8 050 / 101013.0 27.3 28.6
2017-Oct-07 18:53N 19°54' W 162°00'8 8.2 050 / 91012.7 26.9 28.3
2017-Oct-07 17:53N 20°00' W 162°06'1312.8 070 / 121012.3 27.0 28.3
2017-Oct-07 16:53N 20°06' W 162°18'8 8.2 080 / 141011.8 26.8 28.3
2017-Oct-07 15:53N 20°12' W 162°24'1312.8 030 / 151011.4 27.7 28.2
2017-Oct-07 14:53N 20°18' W 162°36'   040 / 161011.1 27.8 28.2

Dump ship's entire track history